createdAt,value
2022-10-16T00:00:21.996Z,20.10
2022-10-16T00:02:23.720Z,20.10
2022-10-16T00:04:25.403Z,20.10
2022-10-16T00:06:28.122Z,20.10
2022-10-16T00:08:29.906Z,20.10
2022-10-16T00:10:31.500Z,20.10
2022-10-16T00:12:33.089Z,20.10
2022-10-16T00:14:34.683Z,20.10
2022-10-16T00:16:36.416Z,20.10
2022-10-16T00:18:38.684Z,20.10
2022-10-16T00:20:40.466Z,20.10
2022-10-16T00:22:42.113Z,20.10
2022-10-16T00:24:43.720Z,20.10
2022-10-16T00:26:45.365Z,20.10
2022-10-16T00:28:49.422Z,20.00
2022-10-16T00:30:51.117Z,20.10
2022-10-16T00:32:52.724Z,20.10
2022-10-16T00:34:55.624Z,20.10
2022-10-16T00:36:57.339Z,20.10
2022-10-16T00:41:11.400Z,20.10
2022-10-16T00:43:39.422Z,20.10
2022-10-16T00:45:41.713Z,20.10
2022-10-16T00:47:50.067Z,20.00
2022-10-16T00:49:55.760Z,20.10
2022-10-16T00:51:57.402Z,20.00
2022-10-16T00:53:59.895Z,20.00
2022-10-16T00:56:02.175Z,20.10
2022-10-16T00:58:03.811Z,20.10
2022-10-16T01:00:08.056Z,20.00
2022-10-16T01:02:12.603Z,20.10
2022-10-16T01:04:14.266Z,20.00
2022-10-16T01:06:45.206Z,20.00
2022-10-16T01:09:07.600Z,20.10
2022-10-16T01:11:33.809Z,20.10
2022-10-16T01:13:41.572Z,20.10
2022-10-16T01:16:12.480Z,20.00
2022-10-16T01:18:47.730Z,20.00
2022-10-16T01:20:58.587Z,20.10
2022-10-16T01:23:26.239Z,20.10
2022-10-16T01:25:50.067Z,20.00
2022-10-16T01:27:52.506Z,20.10
2022-10-16T01:30:11.249Z,20.10
2022-10-16T01:32:29.426Z,20.00
2022-10-16T01:34:39.305Z,20.00
2022-10-16T01:36:47.326Z,20.00
2022-10-16T01:38:52.727Z,20.00
2022-10-16T01:41:01.745Z,20.00
2022-10-16T01:43:11.468Z,20.00
2022-10-16T01:45:16.396Z,20.00
2022-10-16T01:47:20.788Z,20.00
2022-10-16T01:49:26.391Z,20.00
2022-10-16T01:51:30.106Z,20.00
2022-10-16T01:53:33.358Z,20.00
2022-10-16T01:55:39.906Z,20.00
2022-10-16T01:57:46.193Z,20.10
2022-10-16T01:59:53.695Z,20.00
2022-10-16T02:02:00.725Z,20.00
2022-10-16T02:04:18.160Z,20.00
2022-10-16T02:06:20.556Z,20.00
2022-10-16T02:08:25.292Z,20.00
2022-10-16T02:10:31.659Z,20.00
2022-10-16T02:12:35.514Z,20.00
2022-10-16T02:14:39.949Z,20.00
2022-10-16T02:16:44.363Z,20.00
2022-10-16T02:18:46.090Z,20.00
2022-10-16T02:20:47.662Z,20.00
2022-10-16T02:22:51.430Z,20.00
2022-10-16T02:25:01.419Z,20.00
2022-10-16T02:27:09.985Z,20.00
2022-10-16T02:29:15.629Z,20.00
2022-10-16T02:31:23.294Z,20.00
2022-10-16T02:33:27.725Z,20.00
2022-10-16T02:35:30.821Z,20.00
2022-10-16T02:37:33.637Z,20.00
2022-10-16T02:39:35.694Z,20.00
2022-10-16T02:41:37.580Z,20.00
2022-10-16T02:43:39.233Z,20.00
2022-10-16T02:45:40.984Z,20.00
2022-10-16T02:47:42.588Z,20.00
2022-10-16T02:49:44.231Z,20.00
2022-10-16T02:51:45.840Z,20.00
2022-10-16T02:53:47.465Z,20.00
2022-10-16T02:55:49.048Z,20.00
2022-10-16T02:57:50.682Z,20.00
2022-10-16T02:59:52.259Z,20.00
2022-10-16T03:01:53.851Z,20.00
2022-10-16T03:03:55.447Z,20.00
2022-10-16T03:05:57.079Z,20.00
2022-10-16T03:08:00.976Z,20.00
2022-10-16T03:10:02.915Z,20.00
2022-10-16T03:12:04.851Z,20.00
2022-10-16T03:14:06.471Z,20.00
2022-10-16T03:16:08.253Z,20.00
2022-10-16T03:18:09.852Z,20.00
2022-10-16T03:20:11.688Z,20.00
2022-10-16T03:22:13.280Z,20.00
2022-10-16T03:24:14.942Z,20.00
2022-10-16T03:26:16.549Z,20.00
2022-10-16T03:28:18.375Z,20.00
2022-10-16T03:30:20.116Z,20.00
2022-10-16T03:32:22.512Z,20.00
2022-10-16T03:34:24.310Z,20.00
2022-10-16T03:36:25.957Z,20.00
2022-10-16T03:38:27.629Z,20.00
2022-10-16T03:40:29.283Z,20.00
2022-10-16T03:42:30.996Z,20.00
2022-10-16T03:44:32.599Z,20.00
2022-10-16T03:46:34.248Z,20.00
2022-10-16T03:48:35.896Z,20.00
2022-10-16T03:50:37.633Z,20.00
2022-10-16T03:52:39.286Z,20.00
2022-10-16T03:54:40.914Z,20.00
2022-10-16T03:56:42.483Z,20.00
2022-10-16T03:58:44.128Z,20.00
2022-10-16T04:00:48.027Z,20.00
2022-10-16T04:02:49.649Z,20.00
2022-10-16T04:04:51.331Z,20.00
2022-10-16T04:06:52.955Z,20.00
2022-10-16T04:08:54.584Z,20.00
2022-10-16T04:10:56.215Z,20.00
2022-10-16T04:12:58.096Z,20.00
2022-10-16T04:14:59.797Z,20.00
2022-10-16T04:17:01.523Z,20.00
2022-10-16T04:19:03.424Z,20.00
2022-10-16T04:21:06.682Z,20.00
2022-10-16T04:23:08.308Z,20.00
2022-10-16T04:25:10.208Z,20.00
2022-10-16T04:27:11.869Z,20.00
2022-10-16T04:29:13.527Z,20.00
2022-10-16T04:31:15.280Z,20.00
2022-10-16T04:33:16.955Z,20.00
2022-10-16T04:35:20.594Z,20.00
2022-10-16T04:37:29.114Z,20.00
2022-10-16T04:39:30.847Z,20.00
2022-10-16T04:41:32.488Z,20.00
2022-10-16T04:43:34.959Z,20.00
2022-10-16T04:45:36.556Z,20.00
2022-10-16T04:47:38.179Z,20.00
2022-10-16T04:49:39.978Z,20.00
2022-10-16T04:51:41.652Z,20.00
2022-10-16T04:53:43.278Z,20.00
2022-10-16T04:55:44.909Z,20.00
2022-10-16T04:57:46.540Z,19.90
2022-10-16T04:59:48.192Z,20.00
2022-10-16T05:01:50.067Z,20.00
2022-10-16T05:03:51.946Z,20.00
2022-10-16T05:05:53.687Z,19.90
2022-10-16T05:07:55.361Z,20.00
2022-10-16T05:09:57.126Z,20.00
2022-10-16T05:11:58.809Z,20.00
2022-10-16T05:14:01.005Z,20.00
2022-10-16T05:16:02.646Z,20.00
2022-10-16T05:18:04.257Z,19.90
2022-10-16T05:20:06.483Z,19.90
2022-10-16T05:22:08.549Z,20.00
2022-10-16T05:24:10.197Z,20.00
2022-10-16T05:26:11.808Z,20.00
2022-10-16T05:28:13.402Z,20.00
2022-10-16T05:30:15.305Z,20.00
2022-10-16T05:32:18.487Z,19.90
2022-10-16T05:34:21.194Z,20.00
2022-10-16T05:36:22.784Z,20.00
2022-10-16T05:38:24.384Z,19.90
2022-10-16T05:40:25.988Z,19.90
2022-10-16T05:42:27.566Z,19.90
2022-10-16T05:44:29.225Z,20.00
2022-10-16T05:46:30.864Z,19.90
2022-10-16T05:48:33.622Z,19.90
2022-10-16T05:50:35.256Z,20.00
2022-10-16T05:52:36.935Z,20.00
2022-10-16T05:54:38.529Z,20.00
2022-10-16T05:56:40.180Z,19.90
2022-10-16T05:58:42.818Z,19.90
2022-10-16T06:00:44.486Z,19.90
2022-10-16T06:02:46.198Z,19.90
2022-10-16T06:04:47.833Z,20.00
2022-10-16T06:06:49.494Z,19.90
2022-10-16T06:08:51.151Z,19.90
2022-10-16T06:11:07.211Z,20.00
2022-10-16T06:13:08.832Z,19.90
2022-10-16T06:15:10.590Z,20.00
2022-10-16T06:17:12.232Z,20.00
2022-10-16T06:19:14.091Z,19.90
2022-10-16T06:21:19.104Z,19.90
2022-10-16T06:23:20.967Z,19.90
2022-10-16T06:25:22.572Z,19.90
2022-10-16T06:27:24.365Z,19.90
2022-10-16T06:29:26.101Z,19.90
2022-10-16T06:31:31.188Z,19.90
2022-10-16T06:33:33.158Z,19.90
2022-10-16T06:35:34.780Z,19.90
2022-10-16T06:37:36.406Z,19.90
2022-10-16T06:39:38.083Z,19.90
2022-10-16T06:41:39.748Z,19.90
2022-10-16T06:43:41.523Z,19.90
2022-10-16T06:45:43.335Z,19.90
2022-10-16T06:47:44.964Z,19.90
2022-10-16T06:49:50.495Z,20.00
2022-10-16T06:51:55.220Z,19.90
2022-10-16T06:54:04.408Z,19.90
2022-10-16T06:56:10.467Z,19.90
2022-10-16T06:58:12.062Z,20.00
2022-10-16T07:00:13.808Z,19.90
2022-10-16T07:02:15.425Z,19.90
2022-10-16T07:04:17.025Z,19.90
2022-10-16T07:06:21.261Z,19.90
2022-10-16T07:08:23.095Z,19.90
2022-10-16T07:10:25.254Z,19.90
2022-10-16T07:12:27.363Z,19.90
2022-10-16T07:14:29.249Z,19.90
2022-10-16T07:16:33.471Z,19.90
2022-10-16T07:18:35.636Z,19.90
2022-10-16T07:20:38.359Z,19.90
2022-10-16T07:22:39.981Z,19.90
2022-10-16T07:24:41.633Z,19.90
2022-10-16T07:26:45.215Z,19.90
2022-10-16T07:28:46.854Z,19.90
2022-10-16T07:30:48.942Z,19.90
2022-10-16T07:32:50.649Z,19.90
2022-10-16T07:34:53.253Z,19.90
2022-10-16T07:36:54.902Z,19.90
2022-10-16T07:38:59.747Z,19.90
2022-10-16T07:41:07.938Z,19.90
2022-10-16T07:43:09.556Z,19.90
2022-10-16T07:45:11.273Z,19.90
2022-10-16T07:47:12.986Z,20.00
2022-10-16T07:49:14.671Z,20.00
2022-10-16T07:51:19.183Z,20.00
2022-10-16T07:53:24.793Z,19.90
2022-10-16T07:55:28.608Z,20.00
2022-10-16T07:57:30.224Z,19.90
2022-10-16T07:59:32.189Z,19.90
2022-10-16T08:01:33.901Z,20.00
2022-10-16T08:03:35.673Z,19.90
2022-10-16T08:05:37.285Z,19.90
2022-10-16T08:07:39.067Z,19.90
2022-10-16T08:09:40.655Z,20.00
2022-10-16T08:11:42.275Z,19.90
2022-10-16T08:13:43.934Z,19.90
2022-10-16T08:15:46.391Z,19.90
2022-10-16T08:18:01.903Z,19.90
2022-10-16T08:20:03.857Z,19.90
2022-10-16T08:22:05.578Z,19.90
2022-10-16T08:24:07.243Z,19.90
2022-10-16T08:26:09.506Z,20.00
2022-10-16T08:28:12.065Z,20.00
2022-10-16T08:30:14.528Z,20.00
2022-10-16T08:32:16.958Z,20.00
2022-10-16T08:34:18.600Z,20.00
2022-10-16T08:36:20.512Z,20.00
2022-10-16T08:38:22.186Z,19.90
2022-10-16T08:40:27.181Z,19.90
2022-10-16T08:42:48.104Z,19.90
2022-10-16T08:45:00.485Z,19.90
2022-10-16T08:47:21.073Z,20.00
2022-10-16T08:49:25.396Z,20.00
2022-10-16T08:51:30.895Z,20.00
2022-10-16T08:53:43.837Z,20.00
2022-10-16T08:55:51.883Z,20.00
2022-10-16T08:57:53.519Z,20.00
2022-10-16T09:00:01.193Z,20.00
2022-10-16T09:02:02.808Z,20.00
2022-10-16T09:04:10.439Z,20.00
2022-10-16T09:06:35.112Z,20.00
2022-10-16T09:09:11.241Z,20.00
2022-10-16T09:11:22.062Z,20.00
2022-10-16T09:13:52.402Z,20.00
2022-10-16T09:16:21.834Z,20.00
2022-10-16T09:18:41.367Z,20.00
2022-10-16T09:20:52.034Z,20.00
2022-10-16T09:23:26.090Z,20.00
2022-10-16T09:25:28.489Z,20.00
2022-10-16T09:27:30.195Z,20.00
2022-10-16T09:29:31.828Z,20.00
2022-10-16T09:31:37.464Z,20.00
2022-10-16T09:33:41.718Z,20.00
2022-10-16T09:35:45.689Z,20.00
2022-10-16T09:37:50.969Z,20.00
2022-10-16T09:39:54.715Z,20.10
2022-10-16T09:41:57.399Z,20.00
2022-10-16T09:44:02.668Z,20.00
2022-10-16T09:46:07.464Z,20.10
2022-10-16T09:48:14.021Z,20.00
2022-10-16T09:50:27.377Z,20.00
2022-10-16T09:52:30.240Z,20.00
2022-10-16T09:54:31.950Z,20.10
2022-10-16T09:56:42.679Z,20.10
2022-10-16T09:58:50.449Z,20.10
2022-10-16T10:00:54.297Z,20.10
2022-10-16T10:05:05.280Z,20.10
2022-10-16T10:07:16.478Z,20.10
2022-10-16T10:09:25.752Z,20.10
2022-10-16T10:11:45.981Z,20.10
2022-10-16T10:13:47.649Z,20.10
2022-10-16T10:15:49.516Z,20.10
2022-10-16T10:17:57.408Z,20.10
2022-10-16T10:20:01.914Z,20.10
2022-10-16T10:22:25.655Z,20.10
2022-10-16T10:24:27.603Z,20.10
2022-10-16T10:26:36.404Z,20.10
2022-10-16T10:29:03.161Z,20.10
2022-10-16T10:31:25.357Z,20.10
2022-10-16T10:33:53.800Z,20.20
2022-10-16T10:35:55.629Z,20.20
2022-10-16T10:38:07.702Z,20.20
2022-10-16T10:40:40.794Z,20.20
2022-10-16T10:42:58.645Z,20.20
2022-10-16T10:45:00.205Z,20.20
2022-10-16T10:47:11.429Z,20.20
2022-10-16T10:49:51.487Z,20.20
2022-10-16T10:52:21.102Z,20.20
2022-10-16T10:55:04.343Z,20.20
2022-10-16T10:57:19.599Z,20.20
2022-10-16T10:59:39.132Z,20.20
2022-10-16T11:02:11.717Z,20.20
2022-10-16T11:04:34.750Z,20.20
2022-10-16T11:06:53.294Z,20.20
2022-10-16T11:09:01.589Z,20.20
2022-10-16T11:11:12.492Z,20.20
2022-10-16T11:13:39.214Z,20.30
2022-10-16T11:15:44.294Z,20.20
2022-10-16T11:18:06.972Z,20.30
2022-10-16T11:20:22.868Z,20.30
2022-10-16T11:22:34.828Z,20.30
2022-10-16T11:24:48.505Z,20.30
2022-10-16T11:26:52.872Z,20.30
2022-10-16T11:28:56.947Z,20.30
2022-10-16T11:31:04.528Z,20.30
2022-10-16T11:33:09.192Z,20.40
2022-10-16T11:35:23.468Z,20.30
2022-10-16T11:37:37.485Z,20.30
2022-10-16T11:39:40.365Z,20.40
2022-10-16T11:42:32.424Z,20.40
2022-10-16T11:44:42.954Z,20.40
2022-10-16T11:46:59.404Z,20.40
2022-10-16T11:49:12.419Z,20.40
2022-10-16T11:51:36.115Z,20.40
2022-10-16T11:53:48.446Z,20.40
2022-10-16T11:55:50.511Z,20.40
2022-10-16T11:57:58.312Z,20.40
2022-10-16T12:00:06.471Z,20.40
2022-10-16T12:02:28.028Z,20.40
2022-10-16T12:04:37.523Z,20.40
2022-10-16T12:06:49.914Z,20.40
2022-10-16T12:08:53.497Z,20.40
2022-10-16T12:11:06.755Z,20.40
2022-10-16T12:13:49.138Z,20.50
2022-10-16T12:15:59.477Z,20.40
2022-10-16T12:18:01.781Z,20.50
2022-10-16T12:20:12.701Z,20.50
2022-10-16T12:22:19.985Z,20.50
2022-10-16T12:24:43.562Z,20.50
2022-10-16T12:26:46.662Z,20.50
2022-10-16T12:28:52.524Z,20.50
2022-10-16T12:30:56.830Z,20.50
2022-10-16T12:33:02.339Z,20.50
2022-10-16T12:35:06.800Z,20.50
2022-10-16T12:37:13.951Z,20.60
2022-10-16T12:39:23.771Z,20.50
2022-10-16T12:41:36.880Z,20.60
2022-10-16T12:43:43.322Z,20.60
2022-10-16T12:45:46.398Z,20.60
2022-10-16T12:47:51.364Z,20.60
2022-10-16T12:49:55.645Z,20.60
2022-10-16T12:51:57.865Z,20.60
2022-10-16T12:54:13.180Z,20.60
2022-10-16T12:56:42.533Z,20.60
2022-10-16T12:58:59.478Z,20.60
2022-10-16T13:01:17.169Z,20.60
2022-10-16T13:03:21.852Z,20.60
2022-10-16T13:06:02.417Z,20.60
2022-10-16T13:08:42.426Z,20.60
2022-10-16T13:11:04.232Z,20.60
2022-10-16T13:13:08.864Z,20.60
2022-10-16T13:15:16.202Z,20.60
2022-10-16T13:17:44.668Z,20.70
2022-10-16T13:19:58.528Z,20.60
2022-10-16T13:22:07.383Z,20.70
2022-10-16T13:24:37.431Z,20.70
2022-10-16T13:26:44.832Z,20.70
2022-10-16T13:28:46.808Z,20.70
2022-10-16T13:30:57.400Z,20.70
2022-10-16T13:33:05.231Z,20.70
2022-10-16T13:35:22.039Z,20.70
2022-10-16T13:37:25.643Z,20.70
2022-10-16T13:39:31.509Z,20.70
2022-10-16T13:41:33.115Z,20.70
2022-10-16T13:43:39.872Z,20.70
2022-10-16T13:45:41.508Z,20.70
2022-10-16T13:47:43.094Z,20.70
2022-10-16T13:49:45.009Z,20.70
2022-10-16T13:52:00.753Z,20.70
2022-10-16T13:54:02.384Z,20.70
2022-10-16T13:56:07.095Z,20.70
2022-10-16T13:58:13.012Z,20.70
2022-10-16T14:00:30.942Z,20.70
2022-10-16T14:02:37.599Z,20.70
2022-10-16T14:04:40.155Z,20.70
2022-10-16T14:06:45.150Z,20.70
2022-10-16T14:08:51.761Z,20.70
2022-10-16T14:10:58.626Z,20.70
2022-10-16T14:13:05.998Z,20.80
2022-10-16T14:15:19.314Z,20.70
2022-10-16T14:17:32.943Z,20.80
2022-10-16T14:19:34.600Z,20.80
2022-10-16T14:21:36.788Z,20.80
2022-10-16T14:23:40.340Z,20.80
2022-10-16T14:25:41.969Z,20.70
2022-10-16T14:27:43.732Z,20.80
2022-10-16T14:29:45.534Z,20.80
2022-10-16T14:32:00.292Z,20.80
2022-10-16T14:34:01.961Z,20.80
2022-10-16T14:36:19.371Z,20.80
2022-10-16T14:38:21.790Z,20.80
2022-10-16T14:40:30.634Z,20.80
2022-10-16T14:42:32.276Z,20.80
2022-10-16T14:44:34.515Z,20.80
2022-10-16T14:46:38.860Z,20.80
2022-10-16T14:48:51.797Z,20.80
2022-10-16T14:50:53.549Z,20.80
2022-10-16T14:52:55.632Z,20.80
2022-10-16T14:54:57.478Z,20.80
2022-10-16T14:56:59.839Z,20.80
2022-10-16T14:59:01.916Z,20.80
2022-10-16T15:01:03.653Z,20.80
2022-10-16T15:03:05.329Z,20.80
2022-10-16T15:05:20.056Z,20.80
2022-10-16T15:07:22.406Z,20.80
2022-10-16T15:09:24.033Z,20.80
2022-10-16T15:11:25.645Z,20.80
2022-10-16T15:13:27.290Z,20.80
2022-10-16T15:15:36.424Z,20.80
2022-10-16T15:17:38.031Z,20.80
2022-10-16T15:19:39.716Z,20.80
2022-10-16T15:21:41.579Z,20.80
2022-10-16T15:23:43.171Z,20.80
2022-10-16T15:25:52.849Z,20.80
2022-10-16T15:27:54.464Z,20.80
2022-10-16T15:29:56.060Z,20.90
2022-10-16T15:31:57.829Z,20.90
2022-10-16T15:34:05.012Z,20.90
2022-10-16T15:36:07.121Z,20.90
2022-10-16T15:38:13.611Z,21.10
2022-10-16T15:40:16.654Z,21.10
2022-10-16T15:42:18.237Z,21.10
2022-10-16T15:44:20.639Z,21.20
2022-10-16T15:46:23.964Z,21.30
2022-10-16T15:48:25.564Z,21.30
2022-10-16T15:50:27.496Z,21.30
2022-10-16T15:52:30.119Z,21.30
2022-10-16T15:54:31.777Z,21.40
2022-10-16T15:56:34.251Z,21.40
2022-10-16T15:58:36.251Z,21.40
2022-10-16T16:00:38.549Z,21.40
2022-10-16T16:02:41.398Z,21.40
2022-10-16T16:04:44.266Z,21.40
2022-10-16T16:06:46.674Z,21.40
2022-10-16T16:08:48.303Z,21.40
2022-10-16T16:11:07.036Z,21.40
2022-10-16T16:13:08.661Z,21.40
2022-10-16T16:15:11.136Z,21.40
2022-10-16T16:17:12.810Z,21.40
2022-10-16T16:19:16.971Z,21.40
2022-10-16T16:21:18.949Z,21.50
2022-10-16T16:23:20.979Z,21.40
2022-10-16T16:25:22.611Z,21.40
2022-10-16T16:27:26.236Z,21.40
2022-10-16T16:29:28.401Z,21.40
2022-10-16T16:31:31.576Z,21.50
2022-10-16T16:33:33.732Z,21.50
2022-10-16T16:35:35.354Z,21.40
2022-10-16T16:37:37.008Z,21.40
2022-10-16T16:39:38.591Z,21.50
2022-10-16T16:41:40.212Z,21.40
2022-10-16T16:43:42.352Z,21.50
2022-10-16T16:45:43.958Z,21.40
2022-10-16T16:47:45.555Z,21.40
2022-10-16T16:49:48.640Z,21.40
2022-10-16T16:51:50.252Z,21.40
2022-10-16T16:53:53.907Z,21.40
2022-10-16T16:55:55.556Z,21.30
2022-10-16T16:57:57.685Z,21.30
2022-10-16T16:59:59.332Z,21.30
2022-10-16T17:02:01.078Z,21.30
2022-10-16T17:04:03.154Z,21.30
2022-10-16T17:06:10.162Z,21.30
2022-10-16T17:08:11.784Z,21.20
2022-10-16T17:10:13.429Z,21.30
2022-10-16T17:12:15.035Z,21.20
2022-10-16T17:14:16.686Z,21.30
2022-10-16T17:16:18.354Z,21.20
2022-10-16T17:18:21.822Z,21.20
2022-10-16T17:20:23.451Z,21.20
2022-10-16T17:22:25.379Z,21.20
2022-10-16T17:24:27.326Z,21.20
2022-10-16T17:26:29.400Z,21.20
2022-10-16T17:28:31.401Z,21.20
2022-10-16T17:30:37.165Z,21.20
2022-10-16T17:32:38.778Z,21.20
2022-10-16T17:34:40.452Z,21.10
2022-10-16T17:36:46.870Z,21.20
2022-10-16T17:38:48.825Z,21.30
2022-10-16T17:40:50.436Z,21.30
2022-10-16T17:42:52.071Z,21.30
2022-10-16T17:44:53.679Z,21.30
2022-10-16T17:46:55.278Z,21.30
2022-10-16T17:48:57.016Z,21.30
2022-10-16T17:50:58.612Z,21.30
2022-10-16T17:53:00.228Z,21.30
2022-10-16T17:55:01.887Z,21.30
2022-10-16T17:57:03.552Z,21.20
2022-10-16T17:59:05.773Z,21.20
2022-10-16T18:01:19.259Z,21.10
2022-10-16T18:03:20.890Z,21.10
2022-10-16T18:05:22.501Z,21.10
2022-10-16T18:07:24.438Z,21.10
2022-10-16T18:09:26.254Z,21.10
2022-10-16T18:11:28.480Z,21.10
2022-10-16T18:13:30.535Z,21.10
2022-10-16T18:15:32.168Z,21.10
2022-10-16T18:17:37.980Z,21.10
2022-10-16T18:19:39.632Z,21.20
2022-10-16T18:21:41.333Z,21.20
2022-10-16T18:23:49.095Z,21.10
2022-10-16T18:25:53.577Z,21.10
2022-10-16T18:27:55.254Z,21.10
2022-10-16T18:29:57.577Z,21.10
2022-10-16T18:31:59.176Z,21.10
2022-10-16T18:34:00.776Z,21.10
2022-10-16T18:36:08.110Z,21.10
2022-10-16T18:38:09.832Z,21.10
2022-10-16T18:40:11.573Z,21.10
2022-10-16T18:42:13.181Z,21.10
2022-10-16T18:44:14.876Z,21.10
2022-10-16T18:46:21.796Z,21.10
2022-10-16T18:48:23.811Z,21.10
2022-10-16T18:50:25.531Z,21.10
2022-10-16T18:52:27.147Z,21.10
2022-10-16T18:54:30.199Z,21.10
2022-10-16T18:56:32.519Z,21.10
2022-10-16T18:58:35.716Z,21.10
2022-10-16T19:00:37.320Z,21.10
2022-10-16T19:02:39.127Z,21.10
2022-10-16T19:04:40.858Z,21.00
2022-10-16T19:06:48.204Z,21.10
2022-10-16T19:08:49.906Z,21.10
2022-10-16T19:10:51.546Z,21.10
2022-10-16T19:12:53.190Z,21.10
2022-10-16T19:14:54.803Z,21.10
2022-10-16T19:16:56.441Z,21.10
2022-10-16T19:19:00.876Z,21.10
2022-10-16T19:21:02.717Z,21.10
2022-10-16T19:23:04.525Z,21.10
2022-10-16T19:25:06.710Z,21.10
2022-10-16T19:27:08.397Z,21.10
2022-10-16T19:29:10.755Z,21.10
2022-10-16T19:31:17.374Z,21.10
2022-10-16T19:33:18.965Z,21.10
2022-10-16T19:35:20.656Z,21.10
2022-10-16T19:37:25.761Z,21.10
2022-10-16T19:39:27.531Z,21.10
2022-10-16T19:41:30.313Z,21.10
2022-10-16T19:43:32.027Z,21.10
2022-10-16T19:45:34.361Z,21.10
2022-10-16T19:47:36.966Z,21.00
2022-10-16T19:49:38.573Z,21.00
2022-10-16T19:51:40.452Z,21.10
2022-10-16T19:53:42.140Z,21.10
2022-10-16T19:55:43.788Z,21.00
2022-10-16T19:57:45.662Z,21.10
2022-10-16T19:59:47.308Z,21.00
2022-10-16T20:01:49.261Z,21.00
2022-10-16T20:03:51.069Z,21.00
2022-10-16T20:05:56.929Z,21.00
2022-10-16T20:07:58.916Z,21.00
2022-10-16T20:10:00.600Z,21.00
2022-10-16T20:12:03.307Z,21.00
2022-10-16T20:14:05.672Z,21.00
2022-10-16T20:16:08.079Z,21.00
2022-10-16T20:18:09.741Z,21.00
2022-10-16T20:20:11.395Z,21.10
2022-10-16T20:22:13.033Z,21.10
2022-10-16T20:24:15.539Z,21.10
2022-10-16T20:26:19.726Z,21.10
2022-10-16T20:28:22.233Z,21.10
2022-10-16T20:30:23.862Z,21.10
2022-10-16T20:32:25.476Z,21.10
2022-10-16T20:34:27.160Z,21.20
2022-10-16T20:36:30.624Z,21.10
2022-10-16T20:38:32.777Z,21.20
2022-10-16T20:40:39.182Z,21.20
2022-10-16T20:42:41.029Z,21.20
2022-10-16T20:44:42.627Z,21.20
2022-10-16T20:46:44.244Z,21.10
2022-10-16T20:48:46.963Z,21.10
2022-10-16T20:50:48.633Z,21.10
2022-10-16T20:52:50.373Z,21.10
2022-10-16T20:54:52.547Z,21.10
2022-10-16T20:56:54.306Z,21.00
2022-10-16T20:58:56.757Z,21.00
2022-10-16T21:01:05.856Z,21.00
2022-10-16T21:03:08.498Z,21.00
2022-10-16T21:05:10.197Z,21.00
2022-10-16T21:07:11.792Z,21.00
2022-10-16T21:09:13.482Z,21.00
2022-10-16T21:11:24.783Z,21.00
2022-10-16T21:13:28.312Z,21.00
2022-10-16T21:15:32.233Z,21.00
2022-10-16T21:17:33.852Z,21.00
2022-10-16T21:19:35.428Z,21.00
2022-10-16T21:21:38.572Z,21.00
2022-10-16T21:23:40.194Z,21.00
2022-10-16T21:25:49.095Z,21.00
2022-10-16T21:27:50.730Z,21.00
2022-10-16T21:29:54.107Z,21.00
2022-10-16T21:31:55.729Z,21.00
2022-10-16T21:33:57.938Z,21.00
2022-10-16T21:36:01.556Z,20.90
2022-10-16T21:38:06.482Z,20.90
2022-10-16T21:40:08.626Z,20.90
2022-10-16T21:42:10.213Z,20.90
2022-10-16T21:44:12.748Z,20.90
2022-10-16T21:46:15.954Z,20.90
2022-10-16T21:48:19.683Z,20.90
2022-10-16T21:50:21.273Z,20.90
2022-10-16T21:52:22.939Z,20.90
2022-10-16T21:54:24.740Z,20.90
2022-10-16T21:56:26.507Z,20.90
2022-10-16T21:58:30.353Z,20.90
2022-10-16T22:00:31.964Z,20.90
2022-10-16T22:02:34.023Z,20.90
2022-10-16T22:04:35.979Z,20.90
2022-10-16T22:06:38.927Z,20.90
2022-10-16T22:08:41.314Z,20.90
2022-10-16T22:10:43.544Z,20.90
2022-10-16T22:12:45.149Z,20.90
2022-10-16T22:14:46.892Z,20.90
2022-10-16T22:16:49.124Z,20.90
2022-10-16T22:18:55.179Z,20.90
2022-10-16T22:20:57.265Z,20.90
2022-10-16T22:22:58.904Z,20.90
2022-10-16T22:25:00.514Z,20.90
2022-10-16T22:27:02.136Z,20.90
2022-10-16T22:29:04.662Z,20.90
2022-10-16T22:31:10.257Z,20.90
2022-10-16T22:33:12.644Z,20.90
2022-10-16T22:35:14.272Z,20.90
2022-10-16T22:37:15.882Z,20.90
2022-10-16T22:39:18.039Z,20.90
2022-10-16T22:41:20.263Z,20.90
2022-10-16T22:43:21.889Z,20.90
2022-10-16T22:45:23.567Z,20.90
2022-10-16T22:47:25.498Z,20.90
2022-10-16T22:49:27.558Z,20.80
2022-10-16T22:51:29.200Z,20.90
2022-10-16T22:53:30.963Z,20.90
2022-10-16T22:55:32.586Z,20.80
2022-10-16T22:57:34.231Z,20.90
2022-10-16T22:59:35.845Z,20.90
2022-10-16T23:01:40.984Z,20.90
2022-10-16T23:03:42.792Z,20.90
2022-10-16T23:05:44.584Z,20.80
2022-10-16T23:07:46.454Z,20.80
2022-10-16T23:09:48.073Z,20.90
2022-10-16T23:11:49.675Z,20.90
2022-10-16T23:13:51.427Z,20.90
2022-10-16T23:15:53.029Z,20.90
2022-10-16T23:17:54.676Z,20.90
2022-10-16T23:19:56.287Z,20.90
2022-10-16T23:21:57.880Z,20.80
2022-10-16T23:23:59.473Z,20.80
2022-10-16T23:26:01.116Z,20.80
2022-10-16T23:28:03.223Z,20.80
2022-10-16T23:30:06.829Z,20.80
2022-10-16T23:32:08.451Z,20.80
2022-10-16T23:34:10.064Z,20.90
2022-10-16T23:36:14.978Z,20.80
2022-10-16T23:38:16.619Z,20.80
2022-10-16T23:40:18.833Z,20.90
2022-10-16T23:42:21.056Z,20.80
2022-10-16T23:44:22.640Z,20.90
2022-10-16T23:48:27.318Z,20.80
2022-10-16T23:50:30.337Z,20.90
2022-10-16T23:52:32.016Z,20.90
2022-10-16T23:54:33.629Z,20.90
2022-10-16T23:56:35.298Z,20.90
2022-10-16T23:58:37.179Z,20.90
